Terminal Aerodrome Forecast
Issued by NWS

Current Version | Previous Version | Text Only | Print | Product List | Glossary On
Versions: 1 2 3 4 5 6 7 8 9 10 11 12 13
000
FTUS45 KABQ 261700
TAFAEG
TAF
KAEG 261739Z 2618/2718 VRB05KT P6SM FEW080
     FM262100 33012KT P6SM SCT100
     FM270300 35009KT P6SM BKN140
     FM271200 02006KT P6SM SCT150=

USA.gov is the U.S. government's official web portal to all federal, state and local government web resources and services.